createdAt,value
2022-12-23T12:23:06.688Z,14.37
2022-12-23T12:25:48.795Z,14.52
2022-12-23T12:28:32.762Z,14.68
2022-12-23T12:31:12.819Z,14.84
2022-12-23T12:34:14.797Z,14.97
2022-12-23T12:37:21.332Z,15.05
2022-12-23T12:40:06.347Z,15.12
2022-12-23T12:42:52.467Z,15.15
2022-12-23T12:45:32.433Z,15.19
2022-12-23T12:48:30.353Z,15.21
2022-12-23T12:51:26.688Z,15.16
2022-12-23T12:54:25.291Z,15.12
2022-12-23T12:56:56.588Z,15.14
2022-12-23T12:59:33.565Z,15.13
2022-12-23T13:02:45.828Z,15.16
2022-12-23T13:05:34.874Z,15.23
2022-12-23T13:08:23.808Z,15.25
2022-12-23T13:11:16.824Z,15.27
2022-12-23T13:14:08.979Z,15.31
2022-12-23T13:17:15.762Z,15.33
2022-12-23T13:20:09.477Z,15.35
2022-12-23T13:22:38.670Z,15.38
2022-12-23T13:25:15.138Z,15.38
2022-12-23T13:28:08.483Z,15.35
2022-12-23T13:30:46.887Z,15.29
2022-12-23T13:34:10.724Z,15.13
2022-12-23T13:37:33.708Z,15.07
2022-12-23T13:40:26.453Z,15.00
2022-12-23T13:43:03.647Z,14.89
2022-12-23T13:45:38.003Z,14.82
2022-12-23T13:48:40.923Z,14.80
2022-12-23T13:51:32.496Z,14.78
2022-12-23T13:54:32.800Z,14.74
2022-12-23T13:57:08.226Z,14.66
2022-12-23T13:59:44.582Z,14.55
2022-12-23T14:02:36.992Z,14.47
2022-12-23T14:05:26.187Z,14.46
2022-12-23T14:07:54.716Z,14.50
2022-12-23T14:10:25.129Z,14.52
2022-12-23T14:13:01.761Z,14.50
2022-12-23T14:15:55.666Z,14.45
2022-12-23T14:18:44.911Z,14.33
2022-12-23T14:21:40.920Z,14.15
2022-12-23T14:24:29.973Z,14.00
2022-12-23T14:27:36.236Z,13.83
2022-12-23T14:30:37.248Z,13.66
2022-12-23T14:33:37.654Z,13.54
2022-12-23T14:36:25.366Z,13.39
2022-12-23T14:39:11.499Z,13.26
2022-12-23T14:41:57.589Z,13.15
2022-12-23T14:44:37.586Z,13.09
2022-12-23T14:47:33.244Z,12.96
2022-12-23T14:50:39.862Z,12.80
2022-12-23T14:53:26.764Z,12.68
2022-12-23T14:56:26.259Z,12.61
2022-12-23T14:59:09.279Z,12.53
2022-12-23T15:01:48.572Z,12.43
2022-12-23T15:04:21.075Z,12.36
2022-12-23T15:06:55.567Z,12.29
2022-12-23T15:09:45.688Z,12.20
2022-12-23T15:12:20.736Z,12.12
2022-12-23T15:14:58.612Z,12.03
2022-12-23T15:17:33.625Z,11.93
2022-12-23T15:20:10.181Z,11.84
2022-12-23T15:22:39.484Z,11.75
2022-12-23T15:25:31.581Z,11.67
2022-12-23T15:28:02.905Z,11.60
2022-12-23T15:30:46.101Z,11.53
2022-12-23T15:34:00.631Z,11.42
2022-12-23T15:36:10.942Z,11.30
2022-12-23T15:38:42.348Z,11.26
2022-12-23T15:41:18.796Z,11.21
2022-12-23T15:43:46.703Z,11.15
2022-12-23T15:46:29.218Z,11.09
2022-12-23T15:48:58.596Z,11.01
2022-12-23T15:51:57.664Z,10.90
2022-12-23T15:54:26.956Z,10.75
2022-12-23T15:56:57.769Z,10.65
2022-12-23T15:59:43.983Z,10.65
2022-12-23T16:03:06.691Z,10.52
2022-12-23T16:05:46.295Z,10.45
2022-12-23T16:08:19.366Z,10.40
2022-12-23T16:11:20.476Z,10.30
2022-12-23T16:14:02.507Z,10.21
2022-12-23T16:16:38.655Z,10.12
2022-12-23T16:19:53.186Z,9.97
2022-12-23T16:22:21.044Z,9.87
2022-12-23T16:25:04.063Z,9.80
2022-12-23T16:27:58.338Z,9.73
2022-12-23T16:30:34.121Z,9.58
2022-12-23T16:33:07.008Z,9.61
2022-12-23T16:35:43.475Z,9.55
2022-12-23T16:38:26.691Z,9.54
2022-12-23T16:40:57.200Z,9.50
2022-12-23T16:43:25.700Z,9.43
2022-12-23T16:45:57.418Z,9.30
2022-12-23T16:48:42.082Z,9.28
2022-12-23T16:51:18.525Z,9.24
2022-12-23T16:53:55.837Z,9.20
2022-12-23T16:56:42.085Z,9.15
2022-12-23T16:59:10.642Z,9.08
2022-12-23T17:01:48.541Z,9.00
2022-12-23T17:04:16.510Z,8.95
2022-12-23T17:06:46.691Z,8.91
2022-12-23T17:09:14.567Z,8.83
2022-12-23T17:11:53.072Z,8.77
